Time;durP1;ratioP1;P1;durP2;ratioP2;P2;SDS_P1;SDS_P2;PMS_P1;PMS_P2;Temp;Humidity;BMP_temperature;BMP_pressure;BME280_temperature;BME280_humidity;BME280_pressure;Samples;Min_cycle;Max_cycle;Signal;HPM_P1;HPM_P2
2024/03/14 00:00:21;;;;;;;9.13;6.05;;;;;;;10.28;80.99;96767.78;4920225;29;20063;-81
2024/03/14 00:02:49;;;;;;;7.55;6.00;;;;;;;10.27;81.14;96771.34;4920240;29;20051;-81
2024/03/14 00:05:18;;;;;;;7.65;6.22;;;;;;;10.26;81.21;96761.13;4920044;29;20051;-81
2024/03/14 00:07:47;;;;;;;10.40;6.25;;;;;;;10.25;81.02;96762.88;4920025;29;20405;-81
2024/03/14 00:10:15;;;;;;;10.35;6.47;;;;;;;10.26;81.02;96761.91;4919991;29;20128;-81
2024/03/14 00:12:44;;;;;;;10.40;6.22;;;;;;;10.23;80.89;96754.47;4920046;29;20047;-81
2024/03/14 00:15:12;;;;;;;7.35;6.38;;;;;;;10.23;81.04;96762.28;4919650;29;20059;-81
2024/03/14 00:17:40;;;;;;;6.53;5.88;;;;;;;10.22;81.20;96763.25;4919395;29;20107;-81
2024/03/14 00:20:11;;;;;;;10.00;7.88;;;;;;;10.22;81.13;96758.03;4919298;29;20058;-81
2024/03/14 00:22:39;;;;;;;12.30;7.90;;;;;;;10.21;81.31;96761.66;4919141;29;20102;-81
2024/03/14 00:25:09;;;;;;;7.05;6.15;;;;;;;10.22;81.07;96757.25;4918732;29;20051;-81
2024/03/14 00:27:38;;;;;;;8.48;6.10;;;;;;;10.20;81.05;96752.19;4919435;29;20066;-81
2024/03/14 00:30:08;;;;;;;8.27;6.35;;;;;;;10.21;81.30;96753.81;4919397;29;20051;-81
2024/03/14 00:32:36;;;;;;;7.15;5.78;;;;;;;10.20;81.21;96749.59;4919142;29;20059;-81
2024/03/14 00:35:05;;;;;;;8.75;6.07;;;;;;;10.19;81.15;96750.59;4919051;29;20510;-81
2024/03/14 00:37:33;;;;;;;7.93;5.82;;;;;;;10.19;81.25;96749.75;4918402;29;20052;-81
2024/03/14 00:40:00;;;;;;;9.18;6.00;;;;;;;10.19;81.27;96739.31;4918574;29;20496;-81
2024/03/14 00:42:28;;;;;;;8.70;6.78;;;;;;;10.20;81.23;96743.56;4918703;29;20074;-81
2024/03/14 00:44:57;;;;;;;9.25;6.07;;;;;;;10.19;81.41;96741.94;4918409;29;20062;-81
2024/03/14 00:47:26;;;;;;;7.22;5.80;;;;;;;10.17;81.22;96744.72;4917928;29;20055;-81
2024/03/14 00:49:54;;;;;;;9.48;7.68;;;;;;;10.17;81.15;96747.34;4918406;29;20056;-81
2024/03/14 00:52:22;;;;;;;12.20;7.97;;;;;;;10.17;81.17;96749.16;4918042;29;20528;-81
2024/03/14 00:54:50;;;;;;;11.43;7.80;;;;;;;10.16;81.31;96747.50;4917752;29;20051;-81
2024/03/14 00:57:18;;;;;;;8.25;6.68;;;;;;;10.17;82.17;96749.94;4917963;29;20504;-81
2024/03/14 00:59:46;;;;;;;9.63;6.95;;;;;;;10.17;81.76;96749.94;4918209;29;20530;-81
2024/03/14 01:02:15;;;;;;;10.38;7.65;;;;;;;10.18;81.42;96745.53;4918363;29;20424;-81
2024/03/14 01:04:43;;;;;;;7.57;6.55;;;;;;;10.18;81.21;96740.31;4920440;29;20494;-81
2024/03/14 01:07:12;;;;;;;8.75;7.13;;;;;;;10.17;81.21;96738.72;4921732;29;20079;-81
2024/03/14 01:09:40;;;;;;;6.93;5.95;;;;;;;10.16;81.07;96729.25;4921653;29;20052;-81
2024/03/14 01:12:08;;;;;;;9.50;6.78;;;;;;;10.15;81.18;96733.66;4921998;29;20044;-81
2024/03/14 01:14:36;;;;;;;10.90;8.05;;;;;;;10.13;81.07;96716.59;4931798;29;20058;-81
2024/03/14 01:17:04;;;;;;;8.73;7.18;;;;;;;10.11;81.13;96714.16;4926731;29;20567;-81
2024/03/14 01:19:32;;;;;;;10.02;6.90;;;;;;;10.10;81.24;96709.91;4925765;29;20083;-81
2024/03/14 01:22:00;;;;;;;11.13;7.43;;;;;;;10.10;81.09;96712.50;4925323;29;20048;-81
2024/03/14 01:24:27;;;;;;;12.23;7.35;;;;;;;10.09;81.19;96698.69;4924859;29;20115;-81
2024/03/14 01:26:57;;;;;;;8.18;6.65;;;;;;;10.09;81.12;96701.28;4924272;29;20055;-81
2024/03/14 01:29:27;;;;;;;9.85;7.30;;;;;;;10.08;81.21;96701.47;4923932;29;20107;-81
2024/03/14 01:31:55;;;;;;;9.32;7.63;;;;;;;10.09;81.13;96705.69;4923511;29;20122;-81
2024/03/14 01:34:23;;;;;;;16.05;7.57;;;;;;;10.07;81.00;96697.25;4923216;29;20056;-81
2024/03/14 01:36:51;;;;;;;10.20;7.32;;;;;;;10.06;81.02;96703.44;4922504;29;20051;-81
2024/03/14 01:39:19;;;;;;;8.75;6.65;;;;;;;10.04;81.07;96703.63;4922063;29;20102;-81
2024/03/14 01:41:48;;;;;;;8.32;6.28;;;;;;;10.02;81.32;96702.19;4921471;29;20143;-81
2024/03/14 01:44:16;;;;;;;9.70;6.13;;;;;;;10.03;81.29;96701.19;4921927;29;20051;-81
2024/03/14 01:46:44;;;;;;;8.57;6.60;;;;;;;10.03;81.29;96696.78;4921265;29;20102;-81
2024/03/14 01:49:12;;;;;;;10.20;6.15;;;;;;;10.03;81.30;96698.56;4922275;29;20051;-81
2024/03/14 01:51:40;;;;;;;8.43;5.97;;;;;;;10.02;81.14;96689.16;4921409;29;20055;-81
2024/03/14 01:54:12;;;;;;;9.75;7.03;;;;;;;10.00;81.29;96685.91;4921196;29;20048;-81
2024/03/14 01:56:57;;;;;;;7.80;6.70;;;;;;;9.97;81.30;96686.25;4921875;29;20111;-81
2024/03/14 01:59:27;;;;;;;7.35;6.57;;;;;;;9.94;81.31;96687.41;4923656;29;20079;-81
2024/03/14 02:01:56;;;;;;;9.10;6.28;;;;;;;9.93;81.34;96682.34;4921409;29;20103;-81
2024/03/14 02:04:27;;;;;;;9.10;6.82;;;;;;;9.90;81.40;96671.31;4921097;29;20079;-81
2024/03/14 02:06:56;;;;;;;12.40;6.75;;;;;;;9.86;81.37;96670.06;4921222;29;20059;-81
2024/03/14 02:09:28;;;;;;;9.88;6.43;;;;;;;9.86;81.42;96671.81;4921064;29;20055;-81
2024/03/14 02:11:56;;;;;;;8.13;5.85;;;;;;;9.84;81.39;96669.41;4921127;29;20435;-81
2024/03/14 02:14:24;;;;;;;8.10;6.30;;;;;;;9.84;81.37;96666.81;4920718;29;20222;-81
2024/03/14 02:16:52;;;;;;;7.78;5.65;;;;;;;9.83;81.14;96659.97;4920239;29;20090;-81
2024/03/14 02:19:19;;;;;;;6.07;5.22;;;;;;;9.83;81.41;96666.97;4920263;29;20079;-81
2024/03/14 02:21:48;;;;;;;6.93;5.82;;;;;;;9.80;81.29;96664.72;4920053;29;20047;-81
2024/03/14 02:24:17;;;;;;;8.45;6.10;;;;;;;9.79;81.37;96666.50;4920821;29;20416;-81
2024/03/14 02:26:45;;;;;;;6.47;5.53;;;;;;;9.79;81.21;96666.50;4920686;29;20126;-81
2024/03/14 02:29:13;;;;;;;5.93;5.25;;;;;;;9.79;81.28;96658.69;4920012;29;20059;-81
2024/03/14 02:31:41;;;;;;;9.10;6.32;;;;;;;9.78;81.29;96657.09;4919973;29;20107;-81
2024/03/14 02:34:09;;;;;;;8.73;6.25;;;;;;;9.77;81.02;96662.47;4919799;29;20500;-81
2024/03/14 02:36:37;;;;;;;7.50;6.40;;;;;;;9.75;81.31;96657.44;4919840;29;20052;-81
2024/03/14 02:39:07;;;;;;;10.63;7.45;;;;;;;9.72;81.54;96655.19;4919596;29;20047;-81
2024/03/14 02:41:35;;;;;;;9.38;7.05;;;;;;;9.70;81.13;96654.53;4920323;29;20056;-81
2024/03/14 02:44:03;;;;;;;7.25;6.40;;;;;;;9.69;81.30;96647.72;4919820;29;20047;-81
2024/03/14 02:46:31;;;;;;;10.57;6.65;;;;;;;9.69;81.62;96645.13;4919589;29;20110;-81
2024/03/14 02:48:59;;;;;;;9.20;7.03;;;;;;;9.68;81.52;96651.28;4919581;29;20056;-81
2024/03/14 02:51:27;;;;;;;7.10;6.07;;;;;;;9.68;81.50;96648.69;4919696;29;20047;-81
2024/03/14 02:53:54;;;;;;;8.15;5.68;;;;;;;9.69;81.65;96652.94;4919202;29;20496;-81
2024/03/14 02:56:22;;;;;;;6.38;5.78;;;;;;;9.75;82.18;96640.97;4919554;29;20061;-81
2024/03/14 02:58:50;;;;;;;6.75;5.75;;;;;;;9.76;81.72;96638.22;4919288;29;20110;-81
2024/03/14 03:01:18;;;;;;;8.40;6.20;;;;;;;9.78;81.32;96641.47;4919317;29;20062;-81
2024/03/14 03:03:46;;;;;;;6.95;5.57;;;;;;;9.78;81.63;96648.47;4939246;28;20098;-81
2024/03/14 03:06:14;;;;;;;7.43;5.88;;;;;;;9.76;81.78;96653.03;4942910;29;20079;-81
2024/03/14 03:08:43;;;;;;;7.63;6.25;;;;;;;9.76;81.05;96647.84;4932090;29;20119;-81
2024/03/14 03:11:11;;;;;;;7.03;6.30;;;;;;;9.72;80.73;96655.19;4921293;29;20051;-81
2024/03/14 03:13:40;;;;;;;8.55;7.45;;;;;;;9.70;80.59;96651.94;4919923;29;20068;-81
2024/03/14 03:16:08;;;;;;;8.77;6.80;;;;;;;9.64;80.51;96648.25;4919446;29;20047;-81
2024/03/14 03:18:38;;;;;;;7.93;6.13;;;;;;;9.63;80.59;96651.81;4974879;23;20050;-90
2024/03/14 03:21:06;;;;;;;7.97;6.15;;;;;;;9.59;80.47;96647.13;5001798;28;20054;-89
2024/03/14 03:23:34;;;;;;;7.78;6.32;;;;;;;9.55;80.45;96638.06;5001246;28;20034;-89
2024/03/14 03:26:05;;;;;;;9.02;6.53;;;;;;;9.53;80.30;96640.81;5000457;28;20041;-84
2024/03/14 03:28:35;;;;;;;8.13;6.90;;;;;;;9.49;80.35;96642.19;4997549;28;20035;-90
2024/03/14 03:31:08;;;;;;;6.70;5.95;;;;;;;9.43;80.46;96640.25;4997927;28;20054;-89
2024/03/14 03:33:36;;;;;;;8.73;6.72;;;;;;;9.40;80.47;96638.81;4997962;28;20106;-88
2024/03/14 03:36:05;;;;;;;8.20;6.15;;;;;;;9.37;80.55;96633.94;4997651;28;20034;-88
2024/03/14 03:38:33;;;;;;;7.05;6.35;;;;;;;9.33;80.79;96640.47;4997645;28;20066;-86
2024/03/14 03:41:01;;;;;;;9.80;6.85;;;;;;;9.31;80.81;96639.84;4996936;28;20054;-88
2024/03/14 03:43:29;;;;;;;7.63;6.05;;;;;;;9.32;80.80;96643.28;4996713;28;20054;-87
2024/03/14 03:45:58;;;;;;;7.53;5.90;;;;;;;9.28;80.95;96640.19;4996548;28;20403;-87
2024/03/14 03:48:26;;;;;;;8.18;6.57;;;;;;;9.28;81.11;96645.41;4997000;28;20111;-86
2024/03/14 03:50:54;;;;;;;9.63;7.28;;;;;;;9.27;81.24;96648.97;4996822;28;20110;-87
2024/03/14 03:53:21;;;;;;;7.60;6.43;;;;;;;9.29;81.31;96657.41;4996819;28;20046;-86
2024/03/14 03:55:50;;;;;;;7.13;6.18;;;;;;;9.30;81.13;96647.84;4996485;28;20090;-86
2024/03/14 03:58:17;;;;;;;8.32;6.47;;;;;;;9.28;81.20;96646.19;4997444;28;20078;-88
2024/03/14 04:00:45;;;;;;;6.40;5.70;;;;;;;9.28;80.92;96641.00;4997750;28;20086;-90
2024/03/14 04:03:12;;;;;;;7.93;5.43;;;;;;;9.28;80.96;96646.19;4997386;28;20135;-89
2024/03/14 04:05:42;;;;;;;6.47;5.53;;;;;;;9.30;81.02;96640.03;4997036;28;20102;-88
2024/03/14 04:08:09;;;;;;;7.35;5.72;;;;;;;9.30;80.60;96638.22;4997356;28;20046;-89
2024/03/14 04:10:38;;;;;;;6.30;5.53;;;;;;;9.29;80.84;96639.19;4997261;28;20102;-86
2024/03/14 04:13:06;;;;;;;6.85;5.68;;;;;;;9.31;80.68;96650.25;4996833;28;20034;-89
2024/03/14 04:15:34;;;;;;;8.15;6.05;;;;;;;9.31;80.33;96645.03;4996610;28;20078;-89
2024/03/14 04:18:05;;;;;;;6.90;6.05;;;;;;;9.28;80.18;96645.41;4996795;28;20090;-89
2024/03/14 04:20:37;;;;;;;6.68;5.82;;;;;;;9.26;80.21;96636.94;4997123;28;20070;-86
2024/03/14 04:23:06;;;;;;;6.93;5.78;;;;;;;9.25;80.15;96645.75;4997283;28;20035;-88
2024/03/14 04:25:35;;;;;;;6.65;5.93;;;;;;;9.22;80.14;96639.06;4996956;28;20038;-88
2024/03/14 04:28:03;;;;;;;6.57;5.90;;;;;;;9.22;80.07;96643.47;4997529;28;20041;-88
2024/03/14 04:30:31;;;;;;;7.45;6.05;;;;;;;9.21;80.07;96644.47;4997339;28;20035;-88
2024/03/14 04:32:59;;;;;;;7.03;5.93;;;;;;;9.21;80.22;96644.47;4997794;28;20051;-89
2024/03/14 04:35:28;;;;;;;7.20;5.47;;;;;;;9.22;80.25;96641.69;4997591;28;20050;-90
2024/03/14 04:37:56;;;;;;;7.30;5.95;;;;;;;9.20;80.15;96638.44;4997849;28;20034;-88
2024/03/14 04:40:25;;;;;;;9.25;6.20;;;;;;;9.19;80.10;96641.22;5001356;28;20037;-91
2024/03/14 04:42:54;;;;;;;10.35;7.07;;;;;;;9.16;80.14;96637.19;5001342;28;20058;-89
2024/03/14 04:45:22;;;;;;;9.65;7.10;;;;;;;9.15;80.34;96639.94;5001299;28;20039;-89
2024/03/14 04:47:51;;;;;;;9.70;7.47;;;;;;;9.15;80.19;96643.34;5001113;28;20031;-87
2024/03/14 04:50:19;;;;;;;9.65;7.80;;;;;;;9.16;80.20;96644.16;5000557;28;20497;-87
2024/03/14 04:52:48;;;;;;;8.52;7.30;;;;;;;9.15;80.40;96648.56;4999701;28;20167;-86
2024/03/14 04:55:17;;;;;;;7.97;6.63;;;;;;;9.20;80.78;96653.25;5000993;28;20108;-89
2024/03/14 04:57:45;;;;;;;8.88;6.60;;;;;;;9.23;80.42;96647.72;5001045;28;20035;-91
2024/03/14 05:00:20;;;;;;;7.65;6.43;;;;;;;9.22;80.17;96646.06;5001318;28;20066;-90
2024/03/14 05:02:50;;;;;;;8.00;7.20;;;;;;;9.23;80.19;96645.09;5001073;28;20031;-90
2024/03/14 05:05:20;;;;;;;8.45;6.97;;;;;;;9.19;79.59;96642.03;5000882;28;20078;-88
2024/03/14 05:07:50;;;;;;;10.82;7.32;;;;;;;9.16;79.48;96637.19;5000978;28;20062;-88
2024/03/14 05:10:18;;;;;;;9.82;7.90;;;;;;;9.13;79.53;96641.91;5001130;28;20042;-90
2024/03/14 05:12:49;;;;;;;8.70;6.93;;;;;;;9.11;79.50;96643.88;5000937;28;20055;-89
2024/03/14 05:15:17;;;;;;;11.70;8.13;;;;;;;9.10;79.44;96642.25;5000720;28;20050;-90
2024/03/14 05:17:47;;;;;;;14.07;9.63;;;;;;;9.07;79.47;96646.81;5000512;28;20041;-89
2024/03/14 05:20:16;;;;;;;15.63;11.07;;;;;;;9.02;79.52;96641.31;5000923;28;20061;-89
2024/03/14 05:22:44;;;;;;;16.15;11.35;;;;;;;9.00;79.63;96651.06;5000709;28;20062;-88
2024/03/14 05:25:13;;;;;;;17.80;11.55;;;;;;;8.95;79.70;96647.38;5000567;28;20131;-90
2024/03/14 05:27:47;;;;;;;16.35;11.23;;;;;;;8.91;79.73;96649.50;5000561;28;20031;-90
2024/03/14 05:30:18;;;;;;;19.38;13.27;;;;;;;8.88;79.84;96644.63;5000673;28;20098;-89
2024/03/14 05:32:47;;;;;;;17.45;13.50;;;;;;;8.85;79.95;96639.75;5000450;28;20027;-90
2024/03/14 05:35:16;;;;;;;24.63;16.38;;;;;;;8.83;80.06;96646.91;4994708;28;20050;-84
2024/03/14 05:37:44;;;;;;;19.17;13.55;;;;;;;8.79;79.94;96640.44;4988008;28;20054;-86
2024/03/14 05:40:12;;;;;;;21.60;14.75;;;;;;;8.75;80.09;96639.97;4988936;28;20055;-86
2024/03/14 05:42:41;;;;;;;20.80;14.15;;;;;;;8.73;80.18;96641.13;4985124;28;20047;-86
2024/03/14 05:45:09;;;;;;;21.85;13.90;;;;;;;8.69;80.24;96637.25;4984234;28;20050;-85
2024/03/14 05:47:38;;;;;;;19.77;13.07;;;;;;;8.66;80.41;96644.41;4983611;28;20173;-81
2024/03/14 05:50:09;;;;;;;16.77;11.98;;;;;;;8.66;80.35;96646.19;4979429;28;20447;-87
2024/03/14 05:52:39;;;;;;;16.70;11.00;;;;;;;8.59;80.45;96640.84;4973133;28;20432;-84
2024/03/14 05:55:09;;;;;;;13.90;10.93;;;;;;;8.56;80.52;96648.97;4957605;28;20111;-83
2024/03/14 05:57:38;;;;;;;14.43;11.35;;;;;;;8.53;80.58;96643.31;4963963;28;20138;-81
2024/03/14 06:00:09;;;;;;;15.82;12.80;;;;;;;8.46;80.65;96645.75;4984587;28;20054;-81
2024/03/14 06:02:38;;;;;;;16.40;12.60;;;;;;;8.40;80.84;96636.00;4960294;28;20513;-78
2024/03/14 06:05:07;;;;;;;18.48;13.95;;;;;;;8.35;81.21;96643.47;4985217;28;20526;-79
2024/03/14 06:07:34;;;;;;;17.60;12.70;;;;;;;8.33;81.06;96637.63;4979585;28;20079;-84
2024/03/14 06:10:03;;;;;;;17.23;13.05;;;;;;;8.31;81.35;96635.22;4964949;28;20051;-81
2024/03/14 06:12:31;;;;;;;15.45;10.80;;;;;;;8.31;81.33;96637.00;4948504;29;20051;-83
2024/03/14 06:14:59;;;;;;;12.65;8.80;;;;;;;8.28;81.24;96637.34;4944179;29;20055;-84
2024/03/14 06:17:27;;;;;;;9.77;7.70;;;;;;;8.27;81.55;96636.53;4961216;28;20510;-79
2024/03/14 06:19:57;;;;;;;7.88;6.18;;;;;;;8.28;81.38;96632.13;4999049;28;20050;-84
2024/03/14 06:22:24;;;;;;;9.07;6.70;;;;;;;8.27;81.39;96635.72;4987609;28;20074;-82
2024/03/14 06:24:52;;;;;;;7.97;6.15;;;;;;;8.27;81.33;96639.13;4980121;28;20050;-88
2024/03/14 06:27:21;;;;;;;7.60;5.15;;;;;;;8.27;81.42;96636.53;4961359;28;20105;-80
2024/03/14 06:29:50;;;;;;;8.05;5.72;;;;;;;8.30;81.60;96641.38;4966205;28;20126;-79
2024/03/14 06:32:18;;;;;;;6.05;5.32;;;;;;;8.30;81.54;96635.38;4947517;29;20130;-84
2024/03/14 06:34:47;;;;;;;8.57;5.63;;;;;;;8.31;81.81;96631.78;4966250;28;20050;-82
2024/03/14 06:37:15;;;;;;;6.88;5.20;;;;;;;8.32;81.84;96636.03;5002273;28;20054;-86
2024/03/14 06:39:45;;;;;;;7.13;6.13;;;;;;;8.31;81.97;96632.63;4962975;28;20114;-79
2024/03/14 06:42:13;;;;;;;7.50;5.63;;;;;;;8.30;81.94;96624.97;4964170;28;20050;-80
2024/03/14 06:44:42;;;;;;;9.93;5.65;;;;;;;8.30;82.06;96630.19;4963437;28;20274;-79
2024/03/14 06:47:10;;;;;;;7.60;4.93;;;;;;;8.33;82.16;96630.66;4963457;28;20403;-82
2024/03/14 06:49:39;;;;;;;8.65;5.57;;;;;;;8.37;81.90;96631.94;4963300;28;20606;-82
2024/03/14 06:52:09;;;;;;;7.75;5.30;;;;;;;8.40;81.85;96642.03;4965250;28;20062;-81
2024/03/14 06:54:37;;;;;;;6.50;5.13;;;;;;;8.47;81.89;96641.38;4962872;28;20146;-85
2024/03/14 06:57:09;;;;;;;4.93;4.03;;;;;;;8.54;81.82;96634.53;4963937;28;20450;-79
2024/03/14 06:59:38;;;;;;;6.40;4.43;;;;;;;8.62;82.47;96631.91;4949862;28;20055;-81
2024/03/14 07:02:07;;;;;;;8.20;6.38;;;;;;;8.69;82.33;96634.66;4962225;28;20470;-80
2024/03/14 07:04:35;;;;;;;9.07;5.72;;;;;;;8.75;81.93;96633.97;4965064;28;20323;-81
2024/03/14 07:07:03;;;;;;;7.28;5.75;;;;;;;8.81;81.47;96633.28;4966862;28;20530;-79
2024/03/14 07:09:32;;;;;;;12.38;5.57;;;;;;;8.84;81.10;96632.94;4966548;28;20057;-81
2024/03/14 07:12:00;;;;;;;8.50;5.40;;;;;;;8.87;80.92;96633.41;4966223;28;20097;-80
2024/03/14 07:14:29;;;;;;;5.72;5.00;;;;;;;8.92;80.83;96635.53;4966062;28;20495;-81
2024/03/14 07:16:57;;;;;;;5.93;3.90;;;;;;;8.97;80.18;96641.00;4967681;28;20057;-83
2024/03/14 07:19:25;;;;;;;8.85;3.42;;;;;;;9.00;80.38;96643.25;4966860;28;20059;-81
2024/03/14 07:21:53;;;;;;;5.93;3.65;;;;;;;9.04;80.15;96647.16;4967027;28;20078;-80
2024/03/14 07:24:21;;;;;;;3.60;3.17;;;;;;;9.08;80.09;96645.81;4966167;28;20057;-81
2024/03/14 07:26:49;;;;;;;3.22;2.92;;;;;;;9.11;79.89;96654.28;4966788;28;20068;-82
2024/03/14 07:29:18;;;;;;;7.20;3.50;;;;;;;9.11;79.58;96646.47;4967346;28;20141;-84
2024/03/14 07:31:47;;;;;;;5.60;2.88;;;;;;;9.11;79.51;96649.06;4965510;28;20062;-80
2024/03/14 07:34:15;;;;;;;3.20;2.90;;;;;;;9.14;80.21;96648.72;4965571;28;20047;-79
2024/03/14 07:36:44;;;;;;;2.92;2.38;;;;;;;9.16;79.96;96657.16;4964097;28;20066;-80
2024/03/14 07:39:15;;;;;;;3.65;3.13;;;;;;;9.20;80.28;96656.66;4964715;28;20062;-81
2024/03/14 07:41:43;;;;;;;4.90;3.40;;;;;;;9.24;79.86;96657.13;4964345;28;20439;-81
2024/03/14 07:44:11;;;;;;;3.50;3.20;;;;;;;9.30;79.47;96653.03;4963385;28;20062;-79
2024/03/14 07:46:53;;;;;;;5.38;4.82;;;;;;;9.32;79.19;96661.50;4964872;28;20050;-84
2024/03/14 07:49:25;;;;;;;5.10;4.45;;;;;;;9.32;78.86;96651.88;4962652;28;20062;-80
2024/03/14 07:51:55;;;;;;;4.68;3.90;;;;;;;9.33;78.60;96656.09;4962427;28;20142;-80
2024/03/14 07:54:27;;;;;;;4.93;4.20;;;;;;;9.34;78.64;96647.31;4961794;28;20055;-83
2024/03/14 07:56:55;;;;;;;4.90;4.40;;;;;;;9.35;78.93;96650.72;4963523;28;20078;-82
2024/03/14 07:59:24;;;;;;;5.85;3.78;;;;;;;9.41;79.23;96650.03;4962833;28;20474;-79
2024/03/14 08:01:56;;;;;;;;;;;;;;;9.52;79.36;96661.84;4962294;28;20396;-79
2024/03/14 08:04:24;;;;;;;4.60;3.15;;;;;;;9.57;78.43;96659.53;4993279;28;19949;-79
2024/03/14 08:06:52;;;;;;;4.40;3.97;;;;;;;9.64;78.14;96661.28;4964574;28;20074;-84
2024/03/14 08:09:25;;;;;;;3.90;3.40;;;;;;;9.71;77.74;96664.00;4968556;28;20057;-82
2024/03/14 08:11:54;;;;;;;3.80;3.47;;;;;;;9.78;77.55;96664.91;4970594;28;20449;-79
2024/03/14 08:14:23;;;;;;;3.95;3.58;;;;;;;9.84;77.05;96666.81;4972379;28;20055;-81
2024/03/14 08:16:54;;;;;;;3.90;3.60;;;;;;;9.90;76.98;96673.94;4972379;28;20046;-84
2024/03/14 08:19:23;;;;;;;3.53;3.08;;;;;;;9.99;76.48;96671.25;4971083;28;20058;-80
2024/03/14 08:21:51;;;;;;;4.80;3.85;;;;;;;10.08;76.26;96665.00;4970546;28;20061;-81
2024/03/14 08:24:19;;;;;;;3.78;3.30;;;;;;;10.18;75.88;96670.75;4970587;28;20047;-84
2024/03/14 08:26:47;;;;;;;4.13;3.70;;;;;;;10.33;75.25;96670.00;4969575;28;20524;-81
2024/03/14 08:29:15;;;;;;;4.78;3.33;;;;;;;10.53;74.29;96665.88;4968797;28;20113;-81
2024/03/14 08:31:43;;;;;;;5.20;3.47;;;;;;;10.76;73.56;96673.63;4968615;28;20097;-79
2024/03/14 08:34:11;;;;;;;3.78;3.35;;;;;;;10.99;73.06;96664.84;4967841;28;20113;-82
2024/03/14 08:36:41;;;;;;;3.35;3.05;;;;;;;11.16;72.12;96670.69;4967522;28;20125;-83
2024/03/14 08:39:10;;;;;;;5.13;3.17;;;;;;;11.33;71.65;96661.63;4967773;28;20109;-79
2024/03/14 08:41:38;;;;;;;3.28;2.97;;;;;;;11.60;70.86;96662.69;4966059;28;20055;-80
2024/03/14 08:44:06;;;;;;;4.90;2.92;;;;;;;11.82;69.80;96671.34;4966117;28;20422;-81
2024/03/14 08:46:34;;;;;;;3.97;2.33;;;;;;;11.97;69.12;96663.47;4966982;28;20066;-80
2024/03/14 08:49:02;;;;;;;3.22;2.35;;;;;;;12.14;68.63;96666.63;4968832;28;20126;-81
2024/03/14 08:51:31;;;;;;;2.35;2.15;;;;;;;12.29;67.90;96667.34;4969730;28;20082;-85
2024/03/14 08:54:08;;;;;;;3.80;2.20;;;;;;;12.42;67.66;96666.63;4973794;28;20070;-84
2024/03/14 08:56:37;;;;;;;3.83;2.75;;;;;;;12.56;67.09;96659.66;4973665;28;20051;-83
2024/03/14 08:59:05;;;;;;;1.90;1.80;;;;;;;12.65;67.41;96657.69;4970551;28;20058;-83
2024/03/14 09:01:32;;;;;;;2.42;2.20;;;;;;;12.75;66.85;96660.78;4971112;28;20066;-84
2024/03/14 09:04:00;;;;;;;1.75;1.65;;;;;;;12.83;66.72;96657.16;4971050;28;20061;-84
2024/03/14 09:06:28;;;;;;;3.90;1.80;;;;;;;12.92;66.22;96656.00;4969930;28;20078;-84
2024/03/14 09:09:00;;;;;;;3.85;1.90;;;;;;;12.97;65.88;96662.28;4969864;28;20055;-80
2024/03/14 09:11:29;;;;;;;3.15;2.10;;;;;;;13.07;65.53;96659.28;4970152;28;20062;-82
2024/03/14 09:13:57;;;;;;;2.75;1.75;;;;;;;13.20;65.77;96658.53;4969170;28;20054;-82
2024/03/14 09:16:26;;;;;;;5.18;1.60;;;;;;;13.34;65.00;96660.22;4969452;28;20065;-82
2024/03/14 10:27:38;;;;;;;2.40;1.98;;;;;;;18.27;50.45;96625.19;5190414;23;20078;-80
2024/03/14 10:30:23;;;;;;;2.30;2.00;;;;;;;18.49;50.67;96625.41;4964608;28;20055;-81
2024/03/14 10:32:54;;;;;;;1.92;1.73;;;;;;;18.69;49.72;96617.13;4963406;29;20086;-82
2024/03/14 10:35:25;;;;;;;5.45;2.10;;;;;;;18.87;48.78;96624.13;4963425;28;20039;-81
2024/03/14 10:37:57;;;;;;;3.10;2.08;;;;;;;18.97;48.03;96614.78;4963861;28;20047;-80
2024/03/14 10:43:08;;;;;;;3.00;2.38;;;;;;;19.24;48.51;96618.50;5047815;23;20286;-81
2024/03/14 10:45:37;;;;;;;2.92;2.40;;;;;;;19.25;47.02;96619.31;4985644;28;20050;-80
2024/03/14 10:48:07;;;;;;;2.20;2.00;;;;;;;19.28;47.01;96614.31;4984426;28;20078;-80
2024/03/14 10:50:37;;;;;;;1.83;1.42;;;;;;;19.39;46.83;96611.88;4981487;28;20404;-80
2024/03/14 10:53:07;;;;;;;3.42;2.05;;;;;;;19.52;46.10;96608.94;4965026;28;20085;-80
2024/03/14 10:55:39;;;;;;;1.55;1.35;;;;;;;19.70;47.62;96610.56;4965012;28;20050;-80
2024/03/14 10:58:08;;;;;;;1.77;1.35;;;;;;;19.93;48.54;96604.34;4965798;28;20054;-82
2024/03/14 11:00:39;;;;;;;3.05;2.22;;;;;;;20.16;47.29;96609.47;4966605;28;20074;-83
2024/03/14 11:03:17;;;;;;;2.35;1.77;;;;;;;20.28;45.58;96605.91;4966822;28;20077;-82
2024/03/14 11:05:49;;;;;;;4.55;2.80;;;;;;;20.25;44.16;96606.41;4968382;28;20129;-81
2024/03/14 11:08:18;;;;;;;4.20;2.83;;;;;;;20.23;43.90;96600.56;4965433;28;20057;-83
2024/03/14 11:10:54;;;;;;;3.13;1.90;;;;;;;20.23;43.71;96604.00;4966222;28;20058;-81
2024/03/14 11:13:30;;;;;;;4.13;3.22;;;;;;;20.31;44.28;96594.84;4968054;28;20059;-83
2024/03/14 11:16:05;;;;;;;2.28;2.03;;;;;;;20.37;43.85;96602.59;4965956;28;20051;-80
2024/03/14 11:18:39;;;;;;;2.65;2.05;;;;;;;20.41;44.99;96588.88;4965709;28;20047;-81
2024/03/14 11:21:15;;;;;;;3.05;2.75;;;;;;;20.45;43.33;96596.09;4966583;28;20411;-80
2024/03/14 11:23:49;;;;;;;5.43;2.95;;;;;;;20.46;45.18;96587.09;4967191;28;20062;-80
2024/03/14 11:26:19;;;;;;;5.43;3.20;;;;;;;20.37;43.44;96584.06;4968016;28;20081;-83
2024/03/14 11:29:02;;;;;;;3.97;3.38;;;;;;;20.29;43.77;96581.03;4968004;28;20128;-83
2024/03/14 11:31:44;;;;;;;4.72;3.50;;;;;;;20.13;46.49;96578.16;4967744;28;20055;-83
2024/03/14 11:34:22;;;;;;;8.10;3.45;;;;;;;20.08;45.95;96572.00;4953366;28;20059;-83
2024/03/14 11:36:54;;;;;;;6.72;3.63;;;;;;;20.05;44.55;96575.13;4966808;28;20046;-83
2024/03/14 11:39:26;;;;;;;;;;;;;;;20.10;45.41;96572.56;4970560;28;20051;-82
2024/03/14 11:42:12;;;;;;;3.92;3.15;;;;;;;20.03;44.27;96572.75;4982240;28;19928;-82
2024/03/14 11:44:51;;;;;;;3.20;2.70;;;;;;;19.85;43.39;96565.81;4967110;28;20066;-83
2024/03/14 11:47:45;;;;;;;2.83;2.50;;;;;;;19.78;44.42;96567.84;4966382;28;20057;-82
2024/03/14 11:50:22;;;;;;;4.13;3.30;;;;;;;19.80;46.20;96559.66;4981781;28;20086;-83
2024/03/14 11:52:58;;;;;;;6.85;4.32;;;;;;;19.76;44.95;96554.84;4967712;28;20046;-82
2024/03/14 11:55:30;;;;;;;10.13;4.57;;;;;;;19.67;44.53;96558.91;4951723;28;20058;-82
2024/03/14 11:58:03;;;;;;;6.60;3.90;;;;;;;19.49;44.22;96556.50;4966052;28;20053;-82
2024/03/14 12:00:38;;;;;;;5.45;4.03;;;;;;;19.35;44.88;96553.38;4967009;28;20062;-82
2024/03/14 12:03:15;;;;;;;7.30;4.70;;;;;;;19.34;45.76;96549.91;4966231;28;20074;-82
2024/03/14 12:05:52;;;;;;;4.53;3.67;;;;;;;19.34;47.82;96539.31;4966795;28;20615;-82
2024/03/14 12:08:24;;;;;;;5.72;3.83;;;;;;;19.34;45.79;96541.97;4967788;28;20057;-82
2024/03/14 12:10:58;;;;;;;5.65;4.30;;;;;;;19.29;45.33;96544.53;4968047;28;20066;-81
2024/03/14 12:13:32;;;;;;;4.22;3.30;;;;;;;19.17;46.04;96538.50;4967246;28;20055;-82
2024/03/14 12:16:07;;;;;;;4.03;3.25;;;;;;;19.04;45.59;96533.50;4966647;28;20453;-82
2024/03/14 12:18:44;;;;;;;3.60;3.00;;;;;;;18.90;45.82;96533.78;4967795;28;20050;-82
2024/03/14 12:21:21;;;;;;;4.15;3.33;;;;;;;18.79;45.19;96526.72;4966340;28;20051;-82
2024/03/14 12:23:59;;;;;;;4.32;2.67;;;;;;;18.63;45.03;96527.41;4966840;28;20070;-82
2024/03/14 12:26:28;;;;;;;3.70;2.70;;;;;;;18.56;45.07;96521.47;4966132;28;20054;-83
2024/03/14 12:29:05;;;;;;;2.22;1.73;;;;;;;18.40;44.88;96520.38;4966413;28;20047;-82
2024/03/14 12:31:35;;;;;;;2.00;1.80;;;;;;;18.36;45.28;96516.59;4950480;28;20053;-82
2024/03/14 12:34:05;;;;;;;2.55;1.90;;;;;;;18.38;47.35;96515.31;4965213;28;20047;-82
2024/03/14 12:36:41;;;;;;;2.53;1.85;;;;;;;18.41;45.80;96514.88;4965318;28;20123;-82
2024/03/14 12:39:11;;;;;;;4.85;2.55;;;;;;;18.45;45.55;96515.97;4967263;28;20074;-82
2024/03/14 12:41:47;;;;;;;3.30;2.40;;;;;;;18.45;45.11;96505.41;4966942;28;20059;-82
2024/03/14 12:44:18;;;;;;;3.05;2.17;;;;;;;18.42;46.73;96503.25;4965972;28;20074;-83
2024/03/14 12:46:50;;;;;;;4.40;2.38;;;;;;;18.40;46.92;96502.69;4967427;28;20059;-82
2024/03/14 12:49:21;;;;;;;5.90;2.08;;;;;;;18.34;45.45;96500.97;4964827;28;20114;-82
2024/03/14 12:51:56;;;;;;;3.97;2.38;;;;;;;18.25;47.89;96489.97;4964721;28;20059;-82
2024/03/14 12:54:35;;;;;;;2.58;1.92;;;;;;;18.14;45.42;96490.00;4972089;28;20051;-81
2024/03/14 12:57:05;;;;;;;2.00;1.80;;;;;;;18.01;46.59;96485.75;4965035;28;20081;-82
2024/03/14 12:59:36;;;;;;;2.28;1.83;;;;;;;17.92;45.96;96485.31;4971911;28;20035;-82